Hauptseite
METAR-TAF:

METAR-TAF

Flughäfen :

Fliegerhorst Faßberg

Faßberg, Deutschland

Breite: 52-55N, Länge: 010-11E, Höhe: 75 m

Beobachtung

Neuester Wetterbericht von vor 29 Minuten, um 03:20 UTC
Wind 3 kt aus Ost
Temperatur 18°C
Luftfeuchtigkeit 77%
Luftdruck 1013 hPa
Sichtweite 10 km oder mehr

METAR: ETHS 180320Z 08003KT 9999 18/14 Q1013 BLU+

Zeit: 05:49 (03:49 UTC)

Prognose

Neuester Wetterbericht von vor 14 Stunden und 28 Minuten, um 13:21 UTC
Gültige Prognose vom 17 um 14 UTC bis 17 um 23 UTC
Wind 8 kt aus Süd
Sichtweite 10 km oder mehr
Leicht bewölkt in der Höhe von 7000 ft

TAF: ETHS 171321Z 1714/1723 17008KT 9999 NSW FEW070

Wetterbeobachtungen und Prognosen von mehr als 4000 Flughäfen (METAR und TAF Bericht).

Die verfügbaren Stationen werden durch gelbe und rote Markierungen auf der Karte dargestellt.

Führen Sie die Maus auf sie, um den Namen der Station zu sehen.

Darauf klicken, um die Beobachtung von Wetterbeobachtungen und Prognosen zu sehen.

Um die Karte zu ändern : klicken Sie auf den grünen Tasten mit einem schwarzen Kreuz Zum Vergrößern, auf den grünen Button mit einem Gedankenstrich zu verkleinern, oder auf die grünen Pfeile für benachbarte Karten.


METAR-TAF: